sensor_id;sensor_type;location;lat;lon;timestamp;temperature;humidity
19864;DHT22;10094;48.820;9.226;2023-11-21T00:02:59;9.50;99.90
19864;DHT22;10094;48.820;9.226;2023-11-21T00:09:41;9.50;99.90
19864;DHT22;10094;48.820;9.226;2023-11-21T00:16:24;9.50;99.90
19864;DHT22;10094;48.820;9.226;2023-11-21T00:23:07;9.40;99.90
19864;DHT22;10094;48.820;9.226;2023-11-21T00:29:51;9.50;99.90
19864;DHT22;10094;48.820;9.226;2023-11-21T00:36:33;9.80;99.90
19864;DHT22;10094;48.820;9.226;2023-11-21T00:43:16;9.90;99.90
19864;DHT22;10094;48.820;9.226;2023-11-21T00:49:58;9.80;99.90
19864;DHT22;10094;48.820;9.226;2023-11-21T00:56:41;9.60;99.90
19864;DHT22;10094;48.820;9.226;2023-11-21T01:03:24;9.80;99.90
19864;DHT22;10094;48.820;9.226;2023-11-21T01:10:06;9.80;99.90
19864;DHT22;10094;48.820;9.226;2023-11-21T01:16:50;9.90;99.90
19864;DHT22;10094;48.820;9.226;2023-11-21T01:23:32;10.00;99.90
19864;DHT22;10094;48.820;9.226;2023-11-21T01:30:15;10.10;99.90
19864;DHT22;10094;48.820;9.226;2023-11-21T01:36:59;10.10;99.90
19864;DHT22;10094;48.820;9.226;2023-11-21T01:43:42;10.00;99.90
19864;DHT22;10094;48.820;9.226;2023-11-21T01:50:25;9.80;99.90
19864;DHT22;10094;48.820;9.226;2023-11-21T01:57:07;9.80;99.90
19864;DHT22;10094;48.820;9.226;2023-11-21T02:03:49;9.90;99.90
19864;DHT22;10094;48.820;9.226;2023-11-21T02:10:32;9.90;99.90
19864;DHT22;10094;48.820;9.226;2023-11-21T02:17:15;10.00;99.90
19864;DHT22;10094;48.820;9.226;2023-11-21T02:23:58;10.00;99.90
19864;DHT22;10094;48.820;9.226;2023-11-21T02:30:41;10.00;99.90
19864;DHT22;10094;48.820;9.226;2023-11-21T02:37:24;10.00;99.90
19864;DHT22;10094;48.820;9.226;2023-11-21T02:44:07;10.00;99.90
19864;DHT22;10094;48.820;9.226;2023-11-21T02:50:50;10.10;99.90
19864;DHT22;10094;48.820;9.226;2023-11-21T02:57:32;10.20;99.90
19864;DHT22;10094;48.820;9.226;2023-11-21T03:04:15;10.20;99.90
19864;DHT22;10094;48.820;9.226;2023-11-21T03:10:59;10.20;99.90
19864;DHT22;10094;48.820;9.226;2023-11-21T03:17:42;10.20;99.90
19864;DHT22;10094;48.820;9.226;2023-11-21T03:24:25;10.10;99.90
19864;DHT22;10094;48.820;9.226;2023-11-21T03:31:08;10.10;99.90
19864;DHT22;10094;48.820;9.226;2023-11-21T03:37:53;9.90;99.90
19864;DHT22;10094;48.820;9.226;2023-11-21T03:44:37;9.90;99.90
19864;DHT22;10094;48.820;9.226;2023-11-21T03:51:19;10.00;99.90
19864;DHT22;10094;48.820;9.226;2023-11-21T03:58:01;10.00;99.90
19864;DHT22;10094;48.820;9.226;2023-11-21T04:04:45;10.00;99.90
19864;DHT22;10094;48.820;9.226;2023-11-21T04:11:28;10.00;99.90
19864;DHT22;10094;48.820;9.226;2023-11-21T04:18:12;10.20;99.90
19864;DHT22;10094;48.820;9.226;2023-11-21T04:24:54;10.30;99.90
19864;DHT22;10094;48.820;9.226;2023-11-21T04:31:38;10.30;99.90
19864;DHT22;10094;48.820;9.226;2023-11-21T04:38:20;10.20;99.90
19864;DHT22;10094;48.820;9.226;2023-11-21T04:45:06;10.20;99.90
19864;DHT22;10094;48.820;9.226;2023-11-21T04:51:51;10.40;99.90
19864;DHT22;10094;48.820;9.226;2023-11-21T04:58:33;10.20;99.90
19864;DHT22;10094;48.820;9.226;2023-11-21T05:05:17;9.90;99.90
19864;DHT22;10094;48.820;9.226;2023-11-21T05:11:59;9.90;99.90
19864;DHT22;10094;48.820;9.226;2023-11-21T05:18:42;9.80;99.90
19864;DHT22;10094;48.820;9.226;2023-11-21T05:25:24;9.80;99.90
19864;DHT22;10094;48.820;9.226;2023-11-21T05:32:07;9.90;99.90
19864;DHT22;10094;48.820;9.226;2023-11-21T05:38:50;9.80;99.90
19864;DHT22;10094;48.820;9.226;2023-11-21T05:45:32;9.70;99.90
19864;DHT22;10094;48.820;9.226;2023-11-21T05:52:15;9.70;99.90
19864;DHT22;10094;48.820;9.226;2023-11-21T05:58:57;9.70;99.90
19864;DHT22;10094;48.820;9.226;2023-11-21T06:05:39;9.70;99.90
19864;DHT22;10094;48.820;9.226;2023-11-21T06:12:21;9.70;99.90
19864;DHT22;10094;48.820;9.226;2023-11-21T06:19:04;9.80;99.90
19864;DHT22;10094;48.820;9.226;2023-11-21T06:25:47;9.80;99.90
19864;DHT22;10094;48.820;9.226;2023-11-21T06:32:30;9.80;99.90
19864;DHT22;10094;48.820;9.226;2023-11-21T06:39:13;9.90;99.90
19864;DHT22;10094;48.820;9.226;2023-11-21T06:45:57;9.90;99.90
19864;DHT22;10094;48.820;9.226;2023-11-21T06:52:41;10.10;99.90
19864;DHT22;10094;48.820;9.226;2023-11-21T06:59:24;10.20;99.90
19864;DHT22;10094;48.820;9.226;2023-11-21T07:06:07;10.20;99.90
19864;DHT22;10094;48.820;9.226;2023-11-21T07:12:50;10.40;99.90
19864;DHT22;10094;48.820;9.226;2023-11-21T07:19:33;10.40;99.90
19864;DHT22;10094;48.820;9.226;2023-11-21T07:26:16;10.50;99.90
19864;DHT22;10094;48.820;9.226;2023-11-21T07:32:59;10.50;99.90
19864;DHT22;10094;48.820;9.226;2023-11-21T07:39:42;10.50;99.90
19864;DHT22;10094;48.820;9.226;2023-11-21T07:46:26;10.40;99.90
19864;DHT22;10094;48.820;9.226;2023-11-21T07:53:09;10.60;99.90
19864;DHT22;10094;48.820;9.226;2023-11-21T07:59:52;10.70;99.90
19864;DHT22;10094;48.820;9.226;2023-11-21T08:06:36;10.90;99.90
19864;DHT22;10094;48.820;9.226;2023-11-21T08:13:19;11.00;99.90
19864;DHT22;10094;48.820;9.226;2023-11-21T08:20:02;10.90;99.90
19864;DHT22;10094;48.820;9.226;2023-11-21T08:26:45;11.00;99.90
19864;DHT22;10094;48.820;9.226;2023-11-21T08:33:28;11.10;99.90
19864;DHT22;10094;48.820;9.226;2023-11-21T08:40:12;11.10;99.90
19864;DHT22;10094;48.820;9.226;2023-11-21T08:46:59;11.20;99.90
19864;DHT22;10094;48.820;9.226;2023-11-21T08:53:41;11.50;99.90
19864;DHT22;10094;48.820;9.226;2023-11-21T09:00:24;11.90;99.90
19864;DHT22;10094;48.820;9.226;2023-11-21T09:07:07;11.90;99.90
19864;DHT22;10094;48.820;9.226;2023-11-21T09:13:50;12.00;99.90
19864;DHT22;10094;48.820;9.226;2023-11-21T09:20:33;12.40;99.90
19864;DHT22;10094;48.820;9.226;2023-11-21T09:27:16;12.70;99.90
19864;DHT22;10094;48.820;9.226;2023-11-21T09:33:59;12.50;99.90
19864;DHT22;10094;48.820;9.226;2023-11-21T09:40:42;12.50;99.90
19864;DHT22;10094;48.820;9.226;2023-11-21T09:47:25;12.00;99.90
19864;DHT22;10094;48.820;9.226;2023-11-21T09:54:10;11.70;99.90
19864;DHT22;10094;48.820;9.226;2023-11-21T10:00:54;11.60;99.90
19864;DHT22;10094;48.820;9.226;2023-11-21T10:07:39;12.10;99.90
19864;DHT22;10094;48.820;9.226;2023-11-21T10:14:24;12.20;99.90
19864;DHT22;10094;48.820;9.226;2023-11-21T10:21:09;12.00;99.90
19864;DHT22;10094;48.820;9.226;2023-11-21T10:27:57;11.80;99.90
19864;DHT22;10094;48.820;9.226;2023-11-21T10:34:40;11.50;99.90
19864;DHT22;10094;48.820;9.226;2023-11-21T10:41:23;10.90;99.90
19864;DHT22;10094;48.820;9.226;2023-11-21T10:48:08;10.90;99.90
19864;DHT22;10094;48.820;9.226;2023-11-21T10:54:51;10.90;99.90
19864;DHT22;10094;48.820;9.226;2023-11-21T11:01:33;11.00;99.90
19864;DHT22;10094;48.820;9.226;2023-11-21T11:08:18;11.20;99.90
19864;DHT22;10094;48.820;9.226;2023-11-21T11:15:01;11.50;99.90
19864;DHT22;10094;48.820;9.226;2023-11-21T11:42:37;12.40;99.90
19864;DHT22;10094;48.820;9.226;2023-11-21T11:49:29;12.40;99.90
19864;DHT22;10094;48.820;9.226;2023-11-21T11:56:29;12.10;99.90
19864;DHT22;10094;48.820;9.226;2023-11-21T12:03:17;12.40;99.90
19864;DHT22;10094;48.820;9.226;2023-11-21T12:10:01;12.00;99.90
19864;DHT22;10094;48.820;9.226;2023-11-21T12:16:44;11.50;99.90
19864;DHT22;10094;48.820;9.226;2023-11-21T12:23:27;11.70;99.90
19864;DHT22;10094;48.820;9.226;2023-11-21T12:30:10;12.20;99.90
19864;DHT22;10094;48.820;9.226;2023-11-21T12:36:56;12.10;99.90
19864;DHT22;10094;48.820;9.226;2023-11-21T12:43:39;12.10;99.90
19864;DHT22;10094;48.820;9.226;2023-11-21T12:50:29;12.00;99.90
19864;DHT22;10094;48.820;9.226;2023-11-21T12:57:13;12.20;99.90
19864;DHT22;10094;48.820;9.226;2023-11-21T13:03:57;12.40;99.90
19864;DHT22;10094;48.820;9.226;2023-11-21T13:10:45;12.80;99.90
19864;DHT22;10094;48.820;9.226;2023-11-21T13:17:29;13.10;99.90
19864;DHT22;10094;48.820;9.226;2023-11-21T13:24:12;12.20;99.90
19864;DHT22;10094;48.820;9.226;2023-11-21T13:30:55;11.10;99.90
19864;DHT22;10094;48.820;9.226;2023-11-21T13:37:37;10.90;99.90
19864;DHT22;10094;48.820;9.226;2023-11-21T13:44:20;10.90;99.90
19864;DHT22;10094;48.820;9.226;2023-11-21T13:51:11;11.10;99.90
19864;DHT22;10094;48.820;9.226;2023-11-21T13:58:02;11.20;99.90
19864;DHT22;10094;48.820;9.226;2023-11-21T14:04:47;11.10;99.90
19864;DHT22;10094;48.820;9.226;2023-11-21T14:11:42;11.00;99.90
19864;DHT22;10094;48.820;9.226;2023-11-21T14:18:30;10.90;99.90
19864;DHT22;10094;48.820;9.226;2023-11-21T14:25:17;11.10;99.90
19864;DHT22;10094;48.820;9.226;2023-11-21T14:32:01;11.00;99.90
19864;DHT22;10094;48.820;9.226;2023-11-21T14:38:43;11.00;99.90
19864;DHT22;10094;48.820;9.226;2023-11-21T14:45:26;11.00;99.90
19864;DHT22;10094;48.820;9.226;2023-11-21T14:52:09;11.10;99.90
19864;DHT22;10094;48.820;9.226;2023-11-21T14:59:12;11.00;99.90
19864;DHT22;10094;48.820;9.226;2023-11-21T15:06:03;10.90;99.90
19864;DHT22;10094;48.820;9.226;2023-11-21T15:13:14;11.00;99.90
19864;DHT22;10094;48.820;9.226;2023-11-21T15:19:57;10.90;99.90
19864;DHT22;10094;48.820;9.226;2023-11-21T15:26:40;10.70;99.90
19864;DHT22;10094;48.820;9.226;2023-11-21T15:33:22;10.70;99.90
19864;DHT22;10094;48.820;9.226;2023-11-21T15:40:05;10.60;99.90
19864;DHT22;10094;48.820;9.226;2023-11-21T15:46:48;10.50;99.90
19864;DHT22;10094;48.820;9.226;2023-11-21T15:53:31;10.40;99.90
19864;DHT22;10094;48.820;9.226;2023-11-21T16:00:15;10.20;99.90
19864;DHT22;10094;48.820;9.226;2023-11-21T16:07:02;10.20;99.90
19864;DHT22;10094;48.820;9.226;2023-11-21T16:13:44;10.20;99.90
19864;DHT22;10094;48.820;9.226;2023-11-21T16:20:28;10.20;99.90
19864;DHT22;10094;48.820;9.226;2023-11-21T16:27:10;10.20;99.90
19864;DHT22;10094;48.820;9.226;2023-11-21T16:33:53;10.10;99.90
19864;DHT22;10094;48.820;9.226;2023-11-21T16:40:36;9.90;99.90
19864;DHT22;10094;48.820;9.226;2023-11-21T16:47:20;9.80;99.90
19864;DHT22;10094;48.820;9.226;2023-11-21T16:54:03;9.80;99.90
19864;DHT22;10094;48.820;9.226;2023-11-21T17:00:46;9.60;99.90
19864;DHT22;10094;48.820;9.226;2023-11-21T17:07:29;9.50;99.90
19864;DHT22;10094;48.820;9.226;2023-11-21T17:14:12;9.40;99.90
19864;DHT22;10094;48.820;9.226;2023-11-21T17:20:54;9.40;99.90
19864;DHT22;10094;48.820;9.226;2023-11-21T17:27:37;9.40;99.90
19864;DHT22;10094;48.820;9.226;2023-11-21T17:34:20;9.40;99.90
19864;DHT22;10094;48.820;9.226;2023-11-21T17:41:02;9.20;99.90
19864;DHT22;10094;48.820;9.226;2023-11-21T17:47:45;9.10;99.90
19864;DHT22;10094;48.820;9.226;2023-11-21T17:54:27;9.20;99.90
19864;DHT22;10094;48.820;9.226;2023-11-21T18:01:10;9.10;99.90
19864;DHT22;10094;48.820;9.226;2023-11-21T18:07:52;9.20;99.90
19864;DHT22;10094;48.820;9.226;2023-11-21T18:14:35;9.40;99.90
19864;DHT22;10094;48.820;9.226;2023-11-21T18:21:19;9.50;99.90
19864;DHT22;10094;48.820;9.226;2023-11-21T18:28:02;9.50;99.90
19864;DHT22;10094;48.820;9.226;2023-11-21T18:34:44;9.50;99.90
19864;DHT22;10094;48.820;9.226;2023-11-21T18:41:27;9.40;99.90
19864;DHT22;10094;48.820;9.226;2023-11-21T18:48:12;9.40;99.90
19864;DHT22;10094;48.820;9.226;2023-11-21T18:54:57;9.40;99.90
19864;DHT22;10094;48.820;9.226;2023-11-21T19:01:40;9.50;99.90
19864;DHT22;10094;48.820;9.226;2023-11-21T19:08:26;9.70;99.90
19864;DHT22;10094;48.820;9.226;2023-11-21T19:15:08;9.80;99.90
19864;DHT22;10094;48.820;9.226;2023-11-21T19:21:51;9.90;99.90
19864;DHT22;10094;48.820;9.226;2023-11-21T19:28:34;9.90;99.90
19864;DHT22;10094;48.820;9.226;2023-11-21T19:35:16;10.00;99.90
19864;DHT22;10094;48.820;9.226;2023-11-21T19:41:59;9.90;99.90
19864;DHT22;10094;48.820;9.226;2023-11-21T19:48:42;9.70;99.90
19864;DHT22;10094;48.820;9.226;2023-11-21T19:55:25;9.70;99.90
19864;DHT22;10094;48.820;9.226;2023-11-21T20:02:07;9.60;99.90
19864;DHT22;10094;48.820;9.226;2023-11-21T20:08:49;9.50;99.90
19864;DHT22;10094;48.820;9.226;2023-11-21T20:15:34;9.50;99.90
19864;DHT22;10094;48.820;9.226;2023-11-21T20:22:17;9.40;99.90
19864;DHT22;10094;48.820;9.226;2023-11-21T20:29:01;9.30;99.90
19864;DHT22;10094;48.820;9.226;2023-11-21T20:35:44;9.40;99.90
19864;DHT22;10094;48.820;9.226;2023-11-21T20:42:27;9.50;99.90
19864;DHT22;10094;48.820;9.226;2023-11-21T20:49:11;9.40;99.90
19864;DHT22;10094;48.820;9.226;2023-11-21T20:55:53;9.40;99.90
19864;DHT22;10094;48.820;9.226;2023-11-21T21:02:38;9.40;99.90
19864;DHT22;10094;48.820;9.226;2023-11-21T21:09:20;9.30;99.90
19864;DHT22;10094;48.820;9.226;2023-11-21T21:16:02;9.30;99.90
19864;DHT22;10094;48.820;9.226;2023-11-21T21:22:45;9.30;99.90
19864;DHT22;10094;48.820;9.226;2023-11-21T21:29:28;9.20;99.90
19864;DHT22;10094;48.820;9.226;2023-11-21T21:36:11;9.30;99.90
19864;DHT22;10094;48.820;9.226;2023-11-21T21:42:55;9.30;99.90
19864;DHT22;10094;48.820;9.226;2023-11-21T21:49:38;9.40;99.90
19864;DHT22;10094;48.820;9.226;2023-11-21T21:56:21;9.40;99.90
19864;DHT22;10094;48.820;9.226;2023-11-21T22:03:07;9.40;99.90
19864;DHT22;10094;48.820;9.226;2023-11-21T22:09:51;9.40;99.90
19864;DHT22;10094;48.820;9.226;2023-11-21T22:16:33;9.50;99.90
19864;DHT22;10094;48.820;9.226;2023-11-21T22:23:16;9.60;99.90
19864;DHT22;10094;48.820;9.226;2023-11-21T22:29:59;9.60;99.90
19864;DHT22;10094;48.820;9.226;2023-11-21T22:36:41;9.60;99.90
19864;DHT22;10094;48.820;9.226;2023-11-21T22:43:23;9.50;99.90
19864;DHT22;10094;48.820;9.226;2023-11-21T22:50:07;9.40;99.90
19864;DHT22;10094;48.820;9.226;2023-11-21T22:56:50;9.40;99.90
19864;DHT22;10094;48.820;9.226;2023-11-21T23:03:35;9.40;99.90
19864;DHT22;10094;48.820;9.226;2023-11-21T23:10:20;9.30;99.90
19864;DHT22;10094;48.820;9.226;2023-11-21T23:17:04;9.40;99.90
19864;DHT22;10094;48.820;9.226;2023-11-21T23:23:47;9.50;99.90
19864;DHT22;10094;48.820;9.226;2023-11-21T23:30:29;9.40;99.90
19864;DHT22;10094;48.820;9.226;2023-11-21T23:37:11;9.40;99.90
19864;DHT22;10094;48.820;9.226;2023-11-21T23:43:54;9.20;99.90
19864;DHT22;10094;48.820;9.226;2023-11-21T23:50:36;9.20;99.90
19864;DHT22;10094;48.820;9.226;2023-11-21T23:57:19;9.10;99.90
